Terminal Aerodrome Forecast
Issued by NWS

Home | Current Version | Previous Version | Text Only | Print | Product List | Glossary On
Versions: 1 2 3 4 5 6 7 8 9 10 11 12 13
758
FTUS43 KOAX 171726
TAFCDR
TAF
KCDR 171726Z 1718/1818 25012KT P6SM SCT120
     FM172100 25012KT P6SM VCSH BKN120
     FM180400 27005KT P6SM SCT120
     FM180900 30005KT P6SM SKC=

USA.gov is the U.S. government's official web portal to all federal, state and local government web resources and services.